Погода Балсна неделю

Юго-Западный, Румыния

23 - 29 мая
  • 23мая
    Сегодня
    +13°
    +19°
    Ясно и безоблачно
    ВремяПогодаТемператураВлажностьДавлениеВетер, м/сВероятность осадков
    00:00Пасмурно, ливень+17°C94 %747 мм2.2 м/с51 %
    03:00Пасмурно, дождь+16°C93 %747 мм2.8 м/с67 %
    06:00Пасмурно, ливень+15°C93 %748 мм3.0 м/с71 %
    09:00Пасмурно, небольшой дождь+15°C84 %748 мм3.7 м/с64 %
    12:00Пасмурно, сплошная облачность+17°C51 %749 мм4.5 м/с49 %
    15:00Ясно и безоблачно+18°C43 %749 мм3.8 м/с37 %
    18:00Облачно с прояснениями+19°C40 %748 мм3.2 м/с20 %
    21:00Облачно с прояснениями+17°C57 %749 мм2.1 м/с5 %
  • 24мая
    Пятница
    +13°
    +25°
    Небольшая облачность
    ВремяПогодаТемператураВлажностьДавлениеВетер, м/сВероятность осадков
    00:00Практически безоблачно+16°C79 %750 мм2.9 м/с1 %
    03:00Практически безоблачно+15°C88 %750 мм2.7 м/с1 %
    06:00Ясно и безоблачно+14°C93 %751 мм2.4 м/с1 %
    09:00Практически безоблачно+18°C63 %751 мм2.7 м/с2 %
    12:00Небольшая облачность+22°C44 %752 мм3.4 м/с5 %
    15:00Небольшая облачность+25°C33 %751 мм4.5 м/с10 %
    18:00Ясно и безоблачно+24°C31 %751 мм3.3 м/с10 %
    21:00Ясно и безоблачно+19°C62 %751 мм2.0 м/с3 %
  • 25мая
    Суббота
    +12°
    +25°
    Практически безоблачно
    ВремяПогодаТемператураВлажностьДавлениеВетер, м/сВероятность осадков
    00:00Ясно и безоблачно+17°C86 %752 мм3.1 м/с2 %
    03:00Ясно и безоблачно+15°C86 %752 мм3.2 м/с2 %
    06:00Ясно и безоблачно+14°C68 %752 мм3.8 м/с2 %
    09:00Ясно и безоблачно+19°C44 %753 мм5.2 м/с2 %
    12:00Практически безоблачно+23°C40 %753 мм6.7 м/с2 %
    15:00Практически безоблачно+25°C38 %752 мм6.4 м/с9 %
    18:00Небольшая облачность+24°C41 %751 мм5.1 м/с16 %
    21:00Облачно с прояснениями+20°C51 %751 мм3.3 м/с5 %
  • 26мая
    Воскресенье
    +11°
    +24°
    Ясно и безоблачно
    ВремяПогодаТемператураВлажностьДавлениеВетер, м/сВероятность осадков
    00:00Небольшая облачность+18°C56 %752 мм4.3 м/с2 %
    03:00Ясно и безоблачно+15°C57 %752 мм5.0 м/с2 %
    06:00Облачно с прояснениями+12°C71 %752 мм4.2 м/с2 %
    09:00Облачно с прояснениями+17°C43 %752 мм5.1 м/с2 %
    12:00Небольшая облачность+21°C26 %752 мм7.2 м/с2 %
    15:00Ясно и безоблачно+24°C25 %752 мм6.0 м/с2 %
    18:00Ясно и безоблачно+24°C25 %751 мм4.5 м/с2 %
    21:00Ясно и безоблачно+18°C33 %751 мм1.9 м/с2 %
  • 27мая
    Понедельник
    +13°
    +25°
    Ясно и безоблачно
    ВремяПогодаТемператураВлажностьДавлениеВетер, м/сВероятность осадков
    00:00Ясно и безоблачно+16°C45 %752 мм2.5 м/с2 %
    03:00Ясно и безоблачно+14°C48 %752 мм2.5 м/с2 %
    06:00Ясно и безоблачно+12°C67 %752 мм2.2 м/с2 %
    09:00Практически безоблачно+18°C45 %753 мм2.9 м/с2 %
    12:00Ясно и безоблачно+22°C27 %753 мм3.8 м/с2 %
    15:00Ясно и безоблачно+24°C24 %751 мм4.0 м/с6 %
    18:00Небольшая облачность+24°C25 %750 мм3.2 м/с12 %
    21:00Небольшая облачность+20°C40 %750 мм2.4 м/с4 %
Мы используем cookies
Соглашаюсь